Aviation Digital Data Service (ADDS)

Output produced by METARs form (0345 UTC 23 November 2017)
found at http://www.aviationweather.gov/adds/metars/
 
TAF KDAA 230200Z 2302/2408 32009KT 9999 SKC QNH3017INS 
     BECMG 2314/2315 VRB06KT 9999 SKC QNH3006INS TX10/2319Z TNM02/2311Z LAST NO AMDS AFT 2302 NEXT 2410
       
KDAB 230225Z 2302/2324 03006KT P6SM SCT025 BKN200 
     FM230600 04004KT P6SM VCSH SCT015 BKN030 
     FM231400 08009KT P6SM VCSH BKN025 OVC040 
     FM232000 13009KT 5SM SHRA BKN025 
     TEMPO 2320/2324 2SM +SHRA BKN012
       
KDAG 222320Z 2300/2324 VRB04KT P6SM SKC 
     FM230400 27007KT P6SM SKC 
     FM231700 VRB05KT P6SM SKC
       
KDAL 230259Z 2303/2324 VRB03KT P6SM SKC 
     FM231500 19006KT P6SM SCT300
       
KDAN 222320Z 2300/2324 34009KT P6SM BKN250 
     FM230600 VRB03KT P6SM OVC250
       
KDAY 222321Z 2300/2324 VRB03KT P6SM FEW035 
     FM230600 21004KT P6SM BKN200 
     FM231300 21007KT P6SM BKN080
       
KDBQ 222320Z 2300/2324 20009KT P6SM SCT120 OVC150 
     FM231400 25007KT P6SM SKC
       
KDCA 222333Z 2300/2324 31013KT P6SM SKC 
     FM230600 33006KT P6SM SKC 
     FM232000 25005KT P6SM SKC
       
KDDC 222320Z 2300/2324 VRB06KT P6SM SCT250
       
KDEC 222335Z 2300/2324 32005KT P6SM BKN250 
     FM230200 19005KT P6SM SCT120 BKN250 
     FM230800 20006KT P6SM BKN100 
     FM231200 20008KT P6SM FEW100 
     FM231500 21010KT P6SM SKC
       
KDEN 230300Z 2303/2406 21009KT P6SM FEW090 SCT220 
     FM231900 28011KT P6SM FEW120 BKN220 
     FM240200 23011KT P6SM FEW120 BKN220
       
KDET 222323Z 2300/2324 26003KT P6SM SCT045 BKN250 
     FM230700 23007KT P6SM OVC100 
     FM231600 23012KT P6SM SCT045 BKN100 OVC250
       
KDFW 230259Z 2303/2406 VRB03KT P6SM SKC 
     FM231500 19006KT P6SM SCT300
       
KDHN 222328Z 2300/2324 01005KT P6SM SCT030 BKN050
       
KDHT 222320Z 2300/2324 VRB06KT P6SM BKN250
       
KDIK 222326Z 2300/2324 30010KT P6SM SKC 
     FM230400 26006KT P6SM SKC 
     FM231100 24010KT P6SM SKC
       
KDLH 230157Z 2302/2324 20005KT 4SM -SN BR OVC035 
     TEMPO 2302/2303 1 1/2SM -SN OVC015 
     FM230300 21004KT P6SM VCSH BKN015 
     FM230400 23004KT P6SM SCT015 BKN035 
     FM230600 26004KT P6SM SCT035 BKN070 
     FM231600 24007KT P6SM SCT150
       
KDLS 222341Z 2300/2324 VRB05KT P6SM SCT070 OVC090 
     TEMPO 2303/2306 P6SM -RA OVC050 
     FM230600 VRB04KT P6SM BKN080
       
TAF KDMA 222202Z 2222/2404 09009KT 9999 FEW250 QNH3010INS 
     BECMG 2300/2301 10006KT 9999 SKC QNH3012INS 
     BECMG 2318/2319 11009KT 9999 SKC QNH3003INS 
     BECMG 2400/2401 12005KT 9999 FEW250 QNH3003INS TX30/2222Z TN11/2312Z
       
KDMN 222320Z 2300/2324 VRB04KT P6SM SCT250 
     FM230400 31004KT P6SM FEW250 
     FM231500 12005KT P6SM FEW250
       
KDNL 230317Z 2303/2324 05005KT P6SM BKN040
       
TAF KDOV 230000Z 2300/2406 32010G15KT 9999 BKN040 620403 QNH2999INS 
     BECMG 2302/2303 33009KT 9999 FEW040 QNH3007INS WND 27009KT AFT 2319 TX08/2300Z TNM01/2311Z
       
KDPA 230300Z 2303/2324 21007KT P6SM SCT070 BKN120 OVC250 
     FM231900 25008KT P6SM SCT040 BKN250
       
KDRO 222320Z 2300/2324 25007KT P6SM SKC 
     FM230200 07004KT P6SM FEW120 FEW250 
     FM232000 21004KT P6SM FEW120 FEW250
       
KDRT 222330Z 2300/2324 05005KT P6SM FEW250
       
KDSM 222336Z 2300/2324 18009KT P6SM BKN100 BKN140 BKN250 
     FM231000 25005KT P6SM SKC 
     FM231400 31006KT P6SM SKC 
     FM232200 25004KT P6SM SKC
       
KDTW 230308Z 2303/2406 00000KT P6SM BKN250 
     FM230700 23007KT P6SM OVC100 
     FM231600 23012KT P6SM SCT045 BKN100 OVC250 
     FM240100 20005KT P6SM SCT250
       
KDUG 222320Z 2300/2324 10008KT P6SM FEW250 
     FM230300 05006KT P6SM SKC 
     FM230800 VRB04KT P6SM SKC 
     FM231900 08007KT P6SM SCT250
       
KDUJ 222332Z 2300/2324 31006KT P6SM OVC025 
     FM230600 32004KT P6SM SCT040 
     FM231600 23007KT P6SM BKN250
       
KDVL 230000Z 2300/2324 34007KT P6SM BKN025 OVC040 
     FM230400 30006KT P6SM SCT040 
     FM231600 19009KT P6SM SCT035 BKN100 
     FM232100 23012KT P6SM BKN060
       
TAF AMD KDYS 222247Z 2222/2323 35009KT 9999 SKC QNH3027INS 
     BECMG 2301/2302 23009KT 9999 SKC QNH3010INS TX17/2317Z TN03/2312Z LAST NO AMDS AFT 2222 NEXT 2709